Currently 69°F in Hemet, California, USA
69°F
69°F / 55°F
4 mph SW
0.00"
Sunday, May 20, 2018 12:45 PM PDT

Hemet, California Weather Summary
Last 36 Hours

Temperature Winds Hourly Humidity Dewpoint
Time Report Norm Report Norm Max Gusts Precip. Rpt. Norm Rpt. Norm Pressure
1Sun 12:45 PM  68.7°F  75°F  4 mph SW  2 mph  8 mph  0.00"  57%  39%  52°F  47°F  29.84"
2Sun 12:44 PM  68.7°F  75°F  5 mph SW  2 mph  8 mph  ----  57%  39%  52°F  47°F  29.84"
Sun 12:00 PM  65.8°F  73°F  4 mph W  2 mph  10 mph  0.00"  62%  42%  52°F  48°F  29.85"
Sun 11:00 AM  64.2°F  69°F  3 mph W  1 mph  7 mph  0.00"  66%  49%  52°F  49°F  29.85"
Sun 10:00 AM  59.5°F  65°F  calm  1 mph  2 mph  0.00"  74%  56%  51°F  49°F  29.87"
Sun 09:00 AM  57.4°F  62°F  calm  calm  none  0.00"  78%  65%  50°F  49°F  29.89"
Sun 08:00 AM  56.8°F  59°F  calm  calm  none  0.00"  77%  70%  49°F  49°F  29.87"
Sun 07:00 AM  55.4°F  56°F  calm  calm  none  0.00"  78%  72%  48°F  46°F  29.86"
3Sun 06:20 AM  55.0°F  55°F  calm  calm  none  ----  78%  72%  48°F  45°F  29.86"
Sun 06:00 AM  55.4°F  55°F  calm  calm  none  0.00"  79%  72%  49°F  45°F  29.85"
Sun 05:00 AM  55.8°F  55°F  calm  calm  none  0.00"  82%  72%  50°F  46°F  29.83"
Sun 04:00 AM  55.8°F  56°F  calm  calm  none  0.00"  83%  71%  50°F  46°F  29.83"
Sun 03:00 AM  55.9°F  56°F  calm  calm  none  0.00"  83%  71%  51°F  46°F  29.83"
Sun 02:00 AM  55.9°F  57°F  calm  calm  none  0.00"  84%  70%  51°F  47°F  29.83"
Sun 01:00 AM  55.9°F  58°F  calm  calm  none  0.00"  82%  69%  50°F  47°F  29.85"
Sun 12:00 AM  56.5°F  58°F  calm  calm  none  0.00"  81%  68%  50°F  47°F  29.86"
Sat 11:00 PM  56.3°F  60°F  calm  calm  none  0.00"  78%  66%  49°F  48°F  29.86"
Sat 10:00 PM  58.6°F  61°F  calm  calm  3 mph  0.00"  74%  63%  50°F  48°F  29.86"
Sat 09:00 PM  60.4°F  64°F  2 mph SW  calm  6 mph  0.00"  70%  59%  50°F  48°F  29.85"
Sat 08:00 PM  63.1°F  67°F  calm  1 mph  9 mph  0.00"  65%  53%  51°F  48°F  29.83"
Sat 07:00 PM  68.4°F  71°F  4 mph SW  2 mph  12 mph  0.00"  55%  46%  51°F  48°F  29.81"
Sat 06:00 PM  72.9°F  75°F  7 mph SW  3 mph  12 mph  0.00"  46%  40%  50°F  48°F  29.80"
Sat 05:00 PM  75.6°F  77°F  5 mph SW  4 mph  9 mph  0.00"  40%  36%  49°F  47°F  29.79"
Sat 04:00 PM  74.5°F  78°F  3 mph W  4 mph  10 mph  0.00"  43%  33%  50°F  46°F  29.80"
Sat 03:00 PM  72.9°F  79°F  3 mph W  3 mph  12 mph  0.00"  44%  32%  49°F  45°F  29.82"
Sat 02:00 PM  69.8°F  77°F  5 mph SW  3 mph  9 mph  0.00"  51%  33%  50°F  45°F  29.84"
Sat 01:00 PM  66.4°F  76°F  calm  2 mph  8 mph  0.00"  62%  37%  52°F  46°F  29.85"
Sat 12:00 PM  62.4°F  73°F  1 mph SW  2 mph  9 mph  0.00"  66%  41%  50°F  47°F  29.86"
Sat 11:00 AM  59.4°F  70°F  2 mph W  1 mph  7 mph  0.00"  71%  48%  50°F  48°F  29.87"
Sat 10:00 AM  56.7°F  66°F  2 mph SW  1 mph  3 mph  0.00"  77%  55%  49°F  49°F  29.87"
Sat 09:00 AM  54.9°F  62°F  calm  calm  none  0.00"  81%  63%  49°F  49°F  29.87"
Sat 08:00 AM  53.2°F  59°F  calm  calm  none  0.00"  81%  68%  47°F  48°F  29.87"
Sat 07:00 AM  52.9°F  56°F  calm  calm  none  0.00"  84%  70%  48°F  46°F  29.85"
Sat 06:00 AM  52.5°F  55°F  calm  calm  none  0.00"  84%  70%  48°F  45°F  29.84"
Sat 05:00 AM  52.9°F  55°F  calm  calm  none  0.00"  83%  70%  48°F  45°F  29.83"
Sat 04:00 AM  52.9°F  56°F  calm  calm  none  0.00"  81%  70%  47°F  46°F  29.83"
Sat 03:00 AM  52.9°F  57°F  calm  calm  none  0.00"  81%  69%  47°F  46°F  29.85"
Sat 02:00 AM  52.2°F  57°F  calm  calm  none  0.00"  80%  68%  46°F  47°F  29.85"
Sat 01:00 AM  53.2°F  58°F  calm  calm  none  0.00"  78%  67%  46°F  47°F  29.86"

  1. Current weather data. No green row appears if the current weather data is also the high or low for the current day.
  2. High temperature for the current day.
  3. Low temperature for the current day.

The Hemet weather pages are a service of WeatherCurrents. Hemet, California is located in the San Jacinto Valley, in western Riverside County, at the foot of the San Jacinto mountains.
Copyright ©Sun May 20 12:47:07 PDT 2018  WeatherCurrents. All rights reserved. - Submit questions and comments - Privacy Policy

This page automatically refreshes every 10 minutes.